createdAt,value
2023-02-24T00:02:06.262Z,8.60
2023-02-24T00:04:39.918Z,8.60
2023-02-24T00:07:08.423Z,8.40
2023-02-24T00:09:35.671Z,8.30
2023-02-24T00:12:06.257Z,8.30
2023-02-24T00:14:35.119Z,8.30
2023-02-24T00:19:34.002Z,8.20
2023-02-24T00:22:02.539Z,8.20
2023-02-24T00:24:29.873Z,8.10
2023-02-24T00:27:01.864Z,8.10
2023-02-24T00:29:29.825Z,8.20
2023-02-24T00:32:01.529Z,8.20
2023-02-24T00:34:34.037Z,8.30
2023-02-24T00:37:02.118Z,8.20
2023-02-24T00:39:35.280Z,8.20
2023-02-24T00:42:07.400Z,8.20
2023-02-24T00:44:38.592Z,8.10
2023-02-24T00:47:07.613Z,8.20
2023-02-24T00:49:42.273Z,8.10
2023-02-24T00:52:16.034Z,8.20
2023-02-24T00:54:45.141Z,8.20
2023-02-24T00:57:12.555Z,7.70
2023-02-24T01:02:07.684Z,6.80
2023-02-24T01:07:02.317Z,8.30
2023-02-24T01:09:31.485Z,8.30
2023-02-24T01:12:22.326Z,8.30
2023-02-24T01:14:51.769Z,8.30
2023-02-24T01:17:20.822Z,8.30
2023-02-24T01:19:49.690Z,8.30
2023-02-24T01:22:21.054Z,8.30
2023-02-24T01:24:48.857Z,8.30
2023-02-24T01:27:19.045Z,8.30
2023-02-24T01:29:49.656Z,8.30
2023-02-24T01:32:21.587Z,8.30
2023-02-24T01:34:52.200Z,8.30
2023-02-24T01:37:19.700Z,8.30
2023-02-24T01:39:46.947Z,8.30
2023-02-24T01:42:19.686Z,8.30
2023-02-24T01:47:18.376Z,8.40
2023-02-24T01:49:47.528Z,8.40
2023-02-24T01:52:14.416Z,8.30
2023-02-24T01:54:52.000Z,8.30
2023-02-24T01:57:20.652Z,8.30
2023-02-24T01:59:49.359Z,8.30
2023-02-24T02:02:17.252Z,8.30
2023-02-24T02:05:01.930Z,8.40
2023-02-24T02:07:30.277Z,8.30
2023-02-24T02:10:04.122Z,8.30
2023-02-24T02:12:37.149Z,8.40
2023-02-24T02:15:06.321Z,8.30
2023-02-24T02:17:36.939Z,8.50
2023-02-24T02:20:42.775Z,8.40
2023-02-24T02:23:47.388Z,8.30
2023-02-24T02:26:32.613Z,8.40
2023-02-24T02:29:46.996Z,8.50
2023-02-24T02:32:20.018Z,8.50
2023-02-24T02:35:03.860Z,8.40
2023-02-24T02:37:35.260Z,8.50
2023-02-24T02:40:21.097Z,8.40
2023-02-24T02:42:51.854Z,8.40
2023-02-24T02:45:27.844Z,8.40
2023-02-24T02:48:03.142Z,8.40
2023-02-24T02:50:48.113Z,8.40
2023-02-24T02:53:24.973Z,8.50
2023-02-24T02:56:15.073Z,8.50
2023-02-24T02:58:54.576Z,8.40
2023-02-24T03:01:26.744Z,8.40
2023-02-24T03:03:59.182Z,8.40
2023-02-24T03:06:33.341Z,8.40
2023-02-24T03:09:11.412Z,8.40
2023-02-24T03:11:41.408Z,8.30
2023-02-24T03:14:12.416Z,8.30
2023-02-24T03:16:46.219Z,8.40
2023-02-24T03:19:20.573Z,8.40
2023-02-24T03:22:02.085Z,8.40
2023-02-24T03:24:29.531Z,8.40
2023-02-24T03:27:24.556Z,8.50
2023-02-24T03:29:58.521Z,8.40
2023-02-24T03:32:36.618Z,8.30
2023-02-24T03:35:24.136Z,8.30
2023-02-24T03:37:53.301Z,8.30
2023-02-24T03:40:21.127Z,8.30
2023-02-24T03:42:57.620Z,8.30
2023-02-24T03:45:27.928Z,8.20
2023-02-24T03:47:56.105Z,8.20
2023-02-24T03:50:23.459Z,8.20
2023-02-24T03:53:11.824Z,8.20
2023-02-24T03:56:11.525Z,8.20
2023-02-24T03:59:18.711Z,8.20
2023-02-24T04:02:06.441Z,8.20
2023-02-24T04:05:03.220Z,8.20
2023-02-24T04:07:55.432Z,8.20
2023-02-24T04:10:24.234Z,8.10
2023-02-24T04:13:02.103Z,8.20
2023-02-24T04:15:43.806Z,8.20
2023-02-24T04:18:27.380Z,8.10
2023-02-24T04:20:56.801Z,8.20
2023-02-24T04:23:30.099Z,8.20
2023-02-24T04:28:27.504Z,8.20
2023-02-24T04:31:01.547Z,8.20
2023-02-24T04:33:28.597Z,8.20
2023-02-24T04:35:56.132Z,8.30
2023-02-24T04:38:23.792Z,8.30
2023-02-24T04:40:51.424Z,8.30
2023-02-24T04:43:18.588Z,8.20
2023-02-24T04:48:13.167Z,8.20
2023-02-24T04:50:43.523Z,8.20
2023-02-24T04:53:16.297Z,8.10
2023-02-24T04:55:48.777Z,8.10
2023-02-24T04:58:28.169Z,8.10
2023-02-24T05:00:55.977Z,8.00
2023-02-24T05:03:28.223Z,7.90
2023-02-24T05:06:00.053Z,8.10
2023-02-24T05:08:29.764Z,8.10
2023-02-24T05:10:58.684Z,8.20
2023-02-24T05:13:29.010Z,8.20
2023-02-24T05:15:59.577Z,8.20
2023-02-24T05:18:29.645Z,8.20
2023-02-24T05:21:15.471Z,8.10
2023-02-24T05:23:45.356Z,8.10
2023-02-24T05:26:20.494Z,8.10
2023-02-24T05:28:49.430Z,8.00
2023-02-24T05:31:28.864Z,8.00
2023-02-24T05:34:02.770Z,8.00
2023-02-24T05:36:36.317Z,8.00
2023-02-24T05:39:07.582Z,8.00
2023-02-24T05:41:37.822Z,8.00
2023-02-24T05:44:09.346Z,8.00
2023-02-24T05:46:39.179Z,7.90
2023-02-24T05:49:11.780Z,7.80
2023-02-24T05:51:39.362Z,7.80
2023-02-24T05:54:11.476Z,7.80
2023-02-24T05:56:40.209Z,7.80
2023-02-24T05:59:10.861Z,7.80
2023-02-24T06:01:45.812Z,7.80
2023-02-24T06:04:20.974Z,7.80
2023-02-24T06:06:55.369Z,7.70
2023-02-24T06:09:23.479Z,7.70
2023-02-24T06:16:45.212Z,7.80
2023-02-24T06:19:13.618Z,7.80
2023-02-24T06:21:42.136Z,7.90
2023-02-24T06:24:14.631Z,7.90
2023-02-24T06:26:45.964Z,7.90
2023-02-24T06:29:17.392Z,7.90
2023-02-24T06:31:45.235Z,7.90
2023-02-24T06:34:18.365Z,7.90
2023-02-24T06:36:47.019Z,7.70
2023-02-24T06:39:14.693Z,7.80
2023-02-24T06:41:42.665Z,7.80
2023-02-24T06:44:09.632Z,7.80
2023-02-24T06:46:37.337Z,7.80
2023-02-24T06:49:04.400Z,7.80
2023-02-24T06:51:31.303Z,7.80
2023-02-24T06:56:27.836Z,7.80
2023-02-24T06:58:56.489Z,7.90
2023-02-24T07:01:26.005Z,7.80
2023-02-24T07:04:03.613Z,7.80
2023-02-24T07:06:41.009Z,7.80
2023-02-24T07:09:13.780Z,7.80
2023-02-24T07:11:44.575Z,7.80
2023-02-24T07:14:13.474Z,7.80
2023-02-24T07:16:45.341Z,7.70
2023-02-24T07:19:14.604Z,7.80
2023-02-24T07:21:50.237Z,7.70
2023-02-24T07:24:25.054Z,7.70
2023-02-24T07:26:57.502Z,7.60
2023-02-24T07:29:26.165Z,7.70
2023-02-24T07:31:56.594Z,7.80
2023-02-24T07:34:25.311Z,7.80
2023-02-24T07:36:54.591Z,7.70
2023-02-24T07:39:25.760Z,7.80
2023-02-24T07:41:55.142Z,7.80
2023-02-24T07:44:24.297Z,7.70
2023-02-24T07:46:51.620Z,7.90
2023-02-24T07:49:23.397Z,7.90
2023-02-24T07:51:53.023Z,7.90
2023-02-24T07:54:22.033Z,7.90
2023-02-24T07:56:56.801Z,7.90
2023-02-24T07:59:28.989Z,7.90
2023-02-24T08:01:56.481Z,7.90
2023-02-24T08:04:27.397Z,7.90
2023-02-24T08:06:57.580Z,7.90
2023-02-24T08:09:45.141Z,7.90
2023-02-24T08:12:18.205Z,7.90
2023-02-24T08:14:50.868Z,7.80
2023-02-24T08:17:20.620Z,7.80
2023-02-24T08:19:49.236Z,7.90
2023-02-24T08:22:20.516Z,7.80
2023-02-24T08:25:00.742Z,7.80
2023-02-24T08:27:30.397Z,7.80
2023-02-24T08:29:59.850Z,7.90
2023-02-24T08:32:34.078Z,8.00
2023-02-24T08:35:14.637Z,8.00
2023-02-24T08:37:50.603Z,8.00
2023-02-24T08:40:32.799Z,8.00
2023-02-24T08:43:19.497Z,8.10
2023-02-24T08:45:52.436Z,7.80
2023-02-24T08:48:32.416Z,8.10
2023-02-24T08:51:02.362Z,8.20
2023-02-24T08:53:32.230Z,8.20
2023-02-24T08:56:01.138Z,8.20
2023-02-24T09:00:59.149Z,8.20
2023-02-24T09:03:29.644Z,8.20
2023-02-24T09:06:08.822Z,8.20
2023-02-24T09:08:41.527Z,8.10
2023-02-24T09:11:13.996Z,8.20
2023-02-24T09:13:51.819Z,8.10
2023-02-24T09:16:23.788Z,8.00
2023-02-24T09:19:10.255Z,8.10
2023-02-24T09:21:58.533Z,8.10
2023-02-24T09:24:28.401Z,8.10
2023-02-24T09:26:58.685Z,8.10
2023-02-24T09:29:35.665Z,8.10
2023-02-24T09:32:06.715Z,8.10
2023-02-24T09:34:37.144Z,8.10
2023-02-24T09:37:05.318Z,8.10
2023-02-24T09:39:54.711Z,8.00
2023-02-24T09:42:34.047Z,8.10
2023-02-24T09:45:12.704Z,8.10
2023-02-24T09:47:55.770Z,8.10
2023-02-24T09:50:59.145Z,8.10
2023-02-24T09:53:18.311Z,8.10
2023-02-24T09:56:03.912Z,8.00
2023-02-24T10:01:33.269Z,7.90
2023-02-24T10:04:27.467Z,8.80
2023-02-24T10:07:12.396Z,7.90
2023-02-24T10:09:48.126Z,7.90
2023-02-24T10:12:24.094Z,7.80
2023-02-24T10:15:32.357Z,7.80
2023-02-24T10:18:27.227Z,7.90
2023-02-24T10:21:15.604Z,7.90
2023-02-24T10:24:14.517Z,7.90
2023-02-24T10:27:00.742Z,7.90
2023-02-24T10:30:04.498Z,7.90
2023-02-24T10:32:47.891Z,8.00
2023-02-24T10:35:17.628Z,8.00
2023-02-24T10:37:44.929Z,8.00
2023-02-24T10:40:17.479Z,8.00
2023-02-24T10:42:48.898Z,8.00
2023-02-24T10:45:26.761Z,8.00
2023-02-24T10:47:59.459Z,8.00
2023-02-24T10:50:55.032Z,8.00
2023-02-24T10:53:34.773Z,8.00
2023-02-24T10:56:27.359Z,8.00
2023-02-24T10:59:20.982Z,8.00
2023-02-24T11:02:24.781Z,7.90
2023-02-24T11:05:04.633Z,8.40
2023-02-24T11:07:53.696Z,8.10
2023-02-24T11:10:32.775Z,7.80
2023-02-24T11:13:20.062Z,7.80
2023-02-24T11:16:12.166Z,7.70
2023-02-24T11:18:40.387Z,7.60
2023-02-24T11:21:10.980Z,7.60
2023-02-24T11:23:43.257Z,7.60
2023-02-24T11:26:23.770Z,7.60
2023-02-24T11:29:13.678Z,7.50
2023-02-24T11:32:17.004Z,7.60
2023-02-24T11:34:55.726Z,7.50
2023-02-24T11:37:43.572Z,7.60
2023-02-24T11:40:15.122Z,7.60
2023-02-24T11:43:07.474Z,7.60
2023-02-24T11:48:17.300Z,7.60
2023-02-24T11:50:49.964Z,7.60
2023-02-24T11:53:34.719Z,7.50
2023-02-24T11:56:05.025Z,7.60
2023-02-24T11:59:04.295Z,7.50
2023-02-24T12:01:50.809Z,7.50
2023-02-24T12:04:39.838Z,7.40
2023-02-24T12:07:44.234Z,7.30
2023-02-24T12:10:25.438Z,7.30
2023-02-24T12:13:04.403Z,7.30
2023-02-24T12:15:40.215Z,7.30
2023-02-24T12:18:26.201Z,7.40
2023-02-24T12:21:00.557Z,7.40
2023-02-24T12:23:37.553Z,7.40
2023-02-24T12:26:25.517Z,7.40
2023-02-24T12:29:16.293Z,7.50
2023-02-24T12:31:53.448Z,7.50
2023-02-24T12:35:07.052Z,7.40
2023-02-24T12:38:11.160Z,7.40
2023-02-24T12:40:56.943Z,7.40
2023-02-24T12:43:38.794Z,7.40
2023-02-24T12:46:24.048Z,7.40
2023-02-24T12:49:42.725Z,7.40
2023-02-24T12:52:34.060Z,7.30
2023-02-24T12:55:11.418Z,7.30
2023-02-24T12:57:50.479Z,7.40
2023-02-24T13:00:41.954Z,7.40
2023-02-24T13:03:45.331Z,7.30
2023-02-24T13:06:24.282Z,7.30
2023-02-24T13:09:00.445Z,7.30
2023-02-24T13:11:43.540Z,7.30
2023-02-24T13:14:26.249Z,7.20
2023-02-24T13:17:03.891Z,7.20
2023-02-24T13:22:13.361Z,7.10
2023-02-24T13:24:43.022Z,7.00
2023-02-24T13:27:12.986Z,7.00
2023-02-24T13:29:48.638Z,7.10
2023-02-24T13:32:40.689Z,7.10
2023-02-24T13:35:16.977Z,7.10
2023-02-24T13:37:48.329Z,7.10
2023-02-24T13:40:17.932Z,8.70
2023-02-24T13:42:59.123Z,7.10
2023-02-24T13:45:34.864Z,7.00
2023-02-24T13:48:20.605Z,7.00
2023-02-24T13:51:12.380Z,7.00
2023-02-24T13:54:00.994Z,7.00
2023-02-24T13:56:34.191Z,7.00
2023-02-24T13:59:19.930Z,7.00
2023-02-24T14:02:03.210Z,7.00
2023-02-24T14:04:35.939Z,7.00
2023-02-24T14:07:08.856Z,7.00
2023-02-24T14:09:43.126Z,7.00
2023-02-24T14:12:20.287Z,7.00
2023-02-24T14:14:49.279Z,7.00
2023-02-24T14:17:34.528Z,7.00
2023-02-24T14:20:09.641Z,7.00
2023-02-24T14:22:47.958Z,7.00
2023-02-24T14:25:16.268Z,7.00
2023-02-24T14:27:49.582Z,7.00
2023-02-24T14:30:32.944Z,7.00
2023-02-24T14:35:33.283Z,6.90
2023-02-24T14:40:30.042Z,6.90
2023-02-24T14:45:27.434Z,6.90
2023-02-24T14:47:56.514Z,6.90
2023-02-24T14:50:31.298Z,6.80
2023-02-24T14:53:10.577Z,6.80
2023-02-24T14:55:41.977Z,6.80
2023-02-24T14:58:30.396Z,6.80
2023-02-24T15:01:06.875Z,6.80
2023-02-24T15:03:37.717Z,6.80
2023-02-24T15:06:15.603Z,6.80
2023-02-24T15:08:46.460Z,6.80
2023-02-24T15:11:16.383Z,6.70
2023-02-24T15:13:50.116Z,6.70
2023-02-24T15:16:28.303Z,6.80
2023-02-24T15:19:01.526Z,6.80
2023-02-24T15:24:05.190Z,6.80
2023-02-24T15:26:34.308Z,6.80
2023-02-24T15:29:12.049Z,6.70
2023-02-24T15:36:36.133Z,6.80
2023-02-24T15:39:06.738Z,6.80
2023-02-24T15:41:46.170Z,6.80
2023-02-24T15:44:58.724Z,6.80
2023-02-24T15:47:40.117Z,6.80
2023-02-24T15:50:07.558Z,6.80
2023-02-24T15:55:02.681Z,6.70
2023-02-24T15:57:31.511Z,6.80
2023-02-24T15:59:59.308Z,6.80
2023-02-24T16:07:24.972Z,6.80
2023-02-24T16:09:54.346Z,6.80
2023-02-24T16:12:34.069Z,6.80
2023-02-24T16:15:03.959Z,6.80
2023-02-24T16:17:35.772Z,6.80
2023-02-24T16:20:08.570Z,6.80
2023-02-24T16:22:36.148Z,6.90
2023-02-24T16:29:58.638Z,7.00
2023-02-24T16:37:28.963Z,7.00
2023-02-24T16:39:58.463Z,7.00
2023-02-24T16:42:25.704Z,7.10
2023-02-24T16:47:23.145Z,7.10
2023-02-24T16:49:51.151Z,7.10
2023-02-24T16:52:19.345Z,7.00
2023-02-24T17:02:19.642Z,7.10
2023-02-24T17:04:46.655Z,7.10
2023-02-24T17:09:43.111Z,7.10
2023-02-24T17:12:13.537Z,7.10
2023-02-24T17:14:40.471Z,7.10
2023-02-24T17:24:29.994Z,7.10
2023-02-24T17:26:59.833Z,7.20
2023-02-24T17:29:27.400Z,7.10
2023-02-24T17:31:54.395Z,7.20
2023-02-24T17:34:23.962Z,7.20
2023-02-24T17:39:18.725Z,7.30
2023-02-24T17:41:45.985Z,7.20
2023-02-24T17:44:12.976Z,7.30
2023-02-24T17:46:40.115Z,7.30
2023-02-24T17:49:07.344Z,7.20
2023-02-24T17:54:03.048Z,7.20
2023-02-24T18:01:28.523Z,7.20
2023-02-24T18:11:21.671Z,7.30
2023-02-24T18:13:52.565Z,7.30
2023-02-24T18:21:15.069Z,7.40
2023-02-24T18:26:11.361Z,7.40
2023-02-24T18:28:39.081Z,7.40
2023-02-24T18:31:15.550Z,7.30
2023-02-24T18:36:10.995Z,7.40
2023-02-24T18:38:38.176Z,7.40
2023-02-24T18:41:11.385Z,7.30
2023-02-24T18:43:38.662Z,7.30
2023-02-24T18:46:07.871Z,7.40
2023-02-24T18:48:35.309Z,7.30
2023-02-24T18:51:02.806Z,7.30
2023-02-24T18:53:36.781Z,7.40
2023-02-24T18:56:09.302Z,7.30
2023-02-24T19:01:13.394Z,7.40
2023-02-24T19:03:41.296Z,7.40
2023-02-24T19:06:09.395Z,7.30
2023-02-24T19:11:23.479Z,7.30
2023-02-24T19:13:50.494Z,7.30
2023-02-24T19:16:18.954Z,7.30
2023-02-24T19:18:49.453Z,7.30
2023-02-24T19:23:43.863Z,7.30
2023-02-24T19:26:22.662Z,7.40
2023-02-24T19:28:50.090Z,7.40
2023-02-24T19:31:20.306Z,7.40
2023-02-24T19:33:51.263Z,7.40
2023-02-24T19:38:48.486Z,7.30
2023-02-24T19:41:15.785Z,7.40
2023-02-24T19:43:43.381Z,7.30
2023-02-24T19:46:12.520Z,7.30
2023-02-24T19:51:11.085Z,7.30
2023-02-24T19:53:38.597Z,7.30
2023-02-24T19:56:06.840Z,7.30
2023-02-24T19:58:36.173Z,7.30
2023-02-24T20:01:11.757Z,7.30
2023-02-24T20:03:40.701Z,7.30
2023-02-24T20:06:33.332Z,7.30
2023-02-24T20:09:00.737Z,7.40
2023-02-24T20:11:31.103Z,7.40
2023-02-24T20:13:57.933Z,7.30
2023-02-24T20:16:25.858Z,7.40
2023-02-24T20:18:55.300Z,7.60
2023-02-24T20:21:22.595Z,7.40
2023-02-24T20:23:49.761Z,7.30
2023-02-24T20:26:17.468Z,7.40
2023-02-24T20:28:46.039Z,7.30
2023-02-24T20:31:17.649Z,7.40
2023-02-24T20:33:45.204Z,7.40
2023-02-24T20:36:15.631Z,7.40
2023-02-24T20:38:42.530Z,7.40
2023-02-24T20:41:10.046Z,7.40
2023-02-24T20:43:37.365Z,7.40
2023-02-24T20:46:24.398Z,7.40
2023-02-24T20:48:55.040Z,7.30
2023-02-24T20:51:23.115Z,7.30
2023-02-24T20:56:29.379Z,7.30
2023-02-24T20:59:02.294Z,7.20
2023-02-24T21:01:31.093Z,7.20
2023-02-24T21:08:53.727Z,7.20
2023-02-24T21:13:49.773Z,7.20
2023-02-24T21:16:18.584Z,7.20
2023-02-24T21:18:47.943Z,7.20
2023-02-24T21:21:15.695Z,7.20
2023-02-24T21:23:43.595Z,7.20
2023-02-24T21:28:40.363Z,7.20
2023-02-24T21:31:18.365Z,7.10
2023-02-24T21:36:14.827Z,7.10
2023-02-24T21:38:42.795Z,7.10
2023-02-24T21:41:14.800Z,7.00
2023-02-24T21:43:42.792Z,7.00
2023-02-24T21:46:11.402Z,6.90
2023-02-24T21:51:09.920Z,6.90
2023-02-24T21:53:39.572Z,6.90
2023-02-24T21:56:17.552Z,6.90
2023-02-24T21:58:50.477Z,6.90
2023-02-24T22:01:26.941Z,6.90
2023-02-24T22:03:59.423Z,6.90
2023-02-24T22:06:31.347Z,6.90
2023-02-24T22:11:26.127Z,6.90
2023-02-24T22:16:22.669Z,6.90
2023-02-24T22:18:51.203Z,6.90
2023-02-24T22:21:20.929Z,6.90
2023-02-24T22:23:51.024Z,6.90
2023-02-24T22:26:19.579Z,6.90
2023-02-24T22:28:47.497Z,6.90
2023-02-24T22:31:17.553Z,6.90
2023-02-24T22:33:45.004Z,6.80
2023-02-24T22:36:17.416Z,6.80
2023-02-24T22:38:45.735Z,6.80
2023-02-24T22:41:18.509Z,6.90
2023-02-24T22:43:45.538Z,6.80
2023-02-24T22:46:15.229Z,6.90
2023-02-24T22:48:42.656Z,6.90
2023-02-24T22:51:11.596Z,7.00
2023-02-24T22:53:41.669Z,6.90
2023-02-24T22:56:11.761Z,6.90
2023-02-24T23:01:32.613Z,6.80
2023-02-24T23:04:01.130Z,6.80
2023-02-24T23:08:57.957Z,6.90
2023-02-24T23:11:32.492Z,6.90
2023-02-24T23:14:02.445Z,6.90
2023-02-24T23:16:33.052Z,6.80
2023-02-24T23:19:04.348Z,8.40
2023-02-24T23:21:40.106Z,6.80
2023-02-24T23:24:08.973Z,6.80
2023-02-24T23:26:38.602Z,6.80
2023-02-24T23:29:06.282Z,6.80
2023-02-24T23:36:29.976Z,6.80
2023-02-24T23:38:57.348Z,6.80
2023-02-24T23:41:24.251Z,6.80
2023-02-24T23:48:46.055Z,6.90
2023-02-24T23:51:14.207Z,6.70
2023-02-24T23:53:43.169Z,6.70
2023-02-24T23:56:30.428Z,6.60
2023-02-24T23:58:58.945Z,6.40
